createdAt,value
2022-10-25T00:00:53.093Z,80.99
2022-10-25T00:03:19.701Z,81.65
2022-10-25T00:05:46.254Z,82.24
2022-10-25T00:08:12.949Z,81.09
2022-10-25T00:10:39.571Z,81.01
2022-10-25T00:13:06.335Z,82.59
2022-10-25T00:15:33.046Z,81.94
2022-10-25T00:17:59.716Z,81.80
2022-10-25T00:20:26.332Z,83.19
2022-10-25T00:22:52.904Z,82.02
2022-10-25T00:25:19.874Z,83.81
2022-10-25T00:27:59.720Z,83.30
2022-10-25T00:30:29.791Z,84.87
2022-10-25T00:33:00.486Z,84.76
2022-10-25T00:35:28.162Z,85.67
2022-10-25T00:37:54.815Z,86.31
2022-10-25T00:40:21.436Z,86.38
2022-10-25T00:42:48.368Z,85.71
2022-10-25T00:45:28.151Z,84.87
2022-10-25T00:48:12.887Z,85.04
2022-10-25T00:50:49.626Z,86.17
2022-10-25T00:53:25.195Z,84.95
2022-10-25T00:56:03.944Z,86.56
2022-10-25T00:58:35.531Z,86.45
2022-10-25T01:01:06.853Z,87.79
2022-10-25T01:03:35.351Z,85.68
2022-10-25T01:06:05.967Z,86.65
2022-10-25T01:08:33.778Z,85.05
2022-10-25T01:11:00.442Z,85.62
2022-10-25T01:13:27.097Z,86.76
2022-10-25T01:16:10.728Z,84.87
2022-10-25T01:18:49.628Z,86.16
2022-10-25T01:21:25.201Z,85.79
2022-10-25T01:24:19.509Z,84.88
2022-10-25T01:27:23.371Z,85.32
2022-10-25T01:30:03.179Z,86.22
2022-10-25T01:33:02.082Z,86.88
2022-10-25T01:35:57.230Z,87.03
2022-10-25T01:38:26.529Z,87.07
2022-10-25T01:41:03.379Z,87.35
2022-10-25T01:43:42.174Z,88.26
2022-10-25T01:46:18.574Z,86.28
2022-10-25T01:48:48.689Z,86.89
2022-10-25T01:51:17.545Z,87.51
2022-10-25T01:53:49.487Z,86.36
2022-10-25T01:56:42.032Z,87.38
2022-10-25T01:59:50.763Z,86.40
2022-10-25T02:02:25.384Z,86.26
2022-10-25T02:04:58.335Z,87.38
2022-10-25T02:07:34.242Z,88.17
2022-10-25T02:10:07.528Z,88.02
2022-10-25T02:13:13.384Z,87.47
2022-10-25T02:15:44.254Z,88.01
2022-10-25T02:18:16.224Z,88.41
2022-10-25T02:20:46.728Z,89.36
2022-10-25T02:23:15.419Z,88.50
2022-10-25T02:25:42.671Z,88.31
2022-10-25T02:28:15.140Z,89.09
2022-10-25T02:30:44.284Z,90.65
2022-10-25T02:33:11.996Z,90.12
2022-10-25T02:35:39.120Z,91.24
2022-10-25T02:38:07.752Z,91.29
2022-10-25T02:40:36.609Z,91.03
2022-10-25T02:43:17.847Z,90.64
2022-10-25T02:45:47.805Z,90.86
2022-10-25T02:48:17.720Z,90.88
2022-10-25T02:50:44.442Z,90.88
2022-10-25T02:53:11.016Z,91.18
2022-10-25T02:55:38.608Z,90.67
2022-10-25T02:58:05.207Z,90.63
2022-10-25T03:00:31.862Z,90.56
2022-10-25T03:02:58.602Z,90.43
2022-10-25T03:05:25.514Z,90.42
2022-10-25T03:07:52.056Z,90.39
2022-10-25T03:10:18.661Z,88.36
2022-10-25T03:12:45.634Z,87.07
2022-10-25T03:15:12.518Z,88.21
2022-10-25T03:17:39.087Z,88.31
2022-10-25T03:20:06.323Z,89.92
2022-10-25T03:22:32.941Z,90.37
2022-10-25T03:24:59.688Z,90.86
2022-10-25T03:27:26.648Z,89.13
2022-10-25T03:29:53.344Z,89.51
2022-10-25T03:32:19.986Z,89.06
2022-10-25T03:34:46.567Z,89.99
2022-10-25T03:37:13.149Z,89.82
2022-10-25T03:39:39.708Z,90.00
2022-10-25T03:42:06.300Z,89.79
2022-10-25T03:44:32.902Z,90.67
2022-10-25T03:46:59.516Z,90.56
2022-10-25T03:49:26.547Z,90.49
2022-10-25T03:51:57.034Z,88.81
2022-10-25T03:54:29.092Z,90.83
2022-10-25T03:56:56.088Z,91.29
2022-10-25T03:59:22.804Z,90.90
2022-10-25T04:01:49.457Z,89.77
2022-10-25T04:04:16.149Z,90.25
2022-10-25T04:06:42.721Z,90.11
2022-10-25T04:09:09.393Z,90.89
2022-10-25T04:11:36.380Z,90.08
2022-10-25T04:14:03.091Z,89.84
2022-10-25T04:16:29.816Z,90.85
2022-10-25T04:18:57.845Z,90.61
2022-10-25T04:21:25.095Z,89.98
2022-10-25T04:23:52.464Z,91.64
2022-10-25T04:26:20.269Z,91.11
2022-10-25T04:28:52.156Z,90.39
2022-10-25T04:31:18.821Z,90.53
2022-10-25T04:33:49.249Z,89.56
2022-10-25T04:36:16.128Z,90.42
2022-10-25T04:38:42.816Z,90.60
2022-10-25T04:41:10.385Z,90.69
2022-10-25T04:43:36.984Z,90.53
2022-10-25T04:46:03.922Z,89.87
2022-10-25T04:48:30.586Z,89.79
2022-10-25T04:51:00.642Z,90.18
2022-10-25T04:53:27.575Z,91.16
2022-10-25T04:56:04.060Z,90.69
2022-10-25T04:58:31.571Z,90.70
2022-10-25T05:01:04.064Z,90.37
2022-10-25T05:03:31.486Z,91.99
2022-10-25T05:06:12.804Z,91.72
2022-10-25T05:08:41.026Z,91.00
2022-10-25T05:11:09.073Z,91.56
2022-10-25T05:13:37.658Z,92.47
2022-10-25T05:16:04.536Z,92.71
2022-10-25T05:18:32.866Z,90.95
2022-10-25T05:21:04.203Z,91.84
2022-10-25T05:23:31.999Z,92.11
2022-10-25T05:26:02.965Z,91.45
2022-10-25T05:28:29.836Z,91.10
2022-10-25T05:30:56.647Z,91.61
2022-10-25T05:33:23.274Z,92.39
2022-10-25T05:35:49.945Z,91.92
2022-10-25T05:38:16.568Z,90.46
2022-10-25T05:40:43.137Z,90.98
2022-10-25T05:43:09.721Z,90.69
2022-10-25T05:45:36.705Z,88.86
2022-10-25T05:48:03.390Z,89.06
2022-10-25T05:50:30.185Z,89.03
2022-10-25T05:52:57.030Z,90.73
2022-10-25T05:55:26.003Z,91.65
2022-10-25T05:57:52.700Z,91.26
2022-10-25T06:00:19.458Z,91.79
2022-10-25T06:02:46.271Z,92.13
2022-10-25T06:05:13.198Z,91.91
2022-10-25T06:07:39.794Z,90.98
2022-10-25T06:10:10.437Z,90.18
2022-10-25T06:12:37.449Z,88.86
2022-10-25T06:15:04.447Z,89.58
2022-10-25T06:17:31.063Z,90.23
2022-10-25T06:19:57.644Z,90.75
2022-10-25T06:22:24.298Z,90.37
2022-10-25T06:24:50.901Z,91.16
2022-10-25T06:27:17.503Z,90.85
2022-10-25T06:29:44.136Z,91.98
2022-10-25T06:32:10.739Z,89.61
2022-10-25T06:34:37.388Z,89.08
2022-10-25T06:37:04.001Z,90.64
2022-10-25T06:39:30.607Z,91.31
2022-10-25T06:41:57.244Z,90.30
2022-10-25T06:44:23.838Z,90.88
2022-10-25T06:47:15.998Z,92.45
2022-10-25T06:49:37.188Z,91.70
2022-10-25T06:52:03.768Z,92.30
2022-10-25T06:54:30.456Z,91.52
2022-10-25T06:56:58.423Z,90.01
2022-10-25T06:59:28.802Z,88.63
2022-10-25T07:01:57.572Z,89.14
2022-10-25T07:04:24.687Z,88.70
2022-10-25T07:06:55.136Z,88.61
2022-10-25T07:09:26.566Z,90.43
2022-10-25T07:11:53.201Z,88.90
2022-10-25T07:14:19.822Z,89.28
2022-10-25T07:16:46.402Z,89.22
2022-10-25T07:19:12.978Z,87.24
2022-10-25T07:21:39.588Z,86.13
2022-10-25T07:24:06.489Z,85.97
2022-10-25T07:26:34.869Z,86.53
2022-10-25T07:29:02.949Z,85.63
2022-10-25T07:31:40.902Z,85.54
2022-10-25T07:34:07.887Z,85.50
2022-10-25T07:36:34.962Z,86.42
2022-10-25T07:39:02.047Z,85.04
2022-10-25T07:41:28.799Z,85.99
2022-10-25T07:43:56.102Z,87.62
2022-10-25T07:46:23.175Z,88.53
2022-10-25T07:48:49.965Z,87.66
2022-10-25T07:51:17.610Z,85.90
2022-10-25T07:53:44.546Z,82.28
2022-10-25T07:56:17.375Z,81.50
2022-10-25T07:58:48.272Z,82.66
2022-10-25T08:01:20.927Z,82.88
2022-10-25T08:03:47.628Z,82.70
2022-10-25T08:06:14.260Z,82.69
2022-10-25T08:08:40.992Z,83.45
2022-10-25T08:11:08.094Z,82.26
2022-10-25T08:13:38.499Z,83.10
2022-10-25T08:16:06.263Z,83.60
2022-10-25T08:18:34.013Z,83.79
2022-10-25T08:21:03.343Z,83.43
2022-10-25T08:23:31.944Z,83.13
2022-10-25T08:25:59.377Z,82.35
2022-10-25T08:28:26.296Z,82.99
2022-10-25T08:30:55.195Z,84.13
2022-10-25T08:33:21.850Z,84.59
2022-10-25T08:35:48.478Z,84.26
2022-10-25T08:38:15.166Z,82.78
2022-10-25T08:40:51.321Z,81.94
2022-10-25T08:43:44.760Z,83.20
2022-10-25T08:46:16.237Z,83.17
2022-10-25T08:48:50.064Z,83.18
2022-10-25T08:51:30.874Z,82.05
2022-10-25T08:54:05.074Z,80.96
2022-10-25T08:56:32.978Z,81.86
2022-10-25T08:59:04.786Z,81.57
2022-10-25T09:01:44.717Z,81.38
2022-10-25T09:04:11.519Z,80.50
2022-10-25T09:07:29.082Z,80.61
2022-10-25T09:10:26.462Z,81.64
2022-10-25T09:13:20.251Z,80.60
2022-10-25T09:15:59.307Z,80.27
2022-10-25T09:18:39.692Z,81.50
2022-10-25T09:21:22.241Z,81.83
2022-10-25T09:24:22.884Z,82.36
2022-10-25T09:27:17.598Z,82.89
2022-10-25T09:30:05.065Z,81.48
2022-10-25T09:32:43.045Z,81.83
2022-10-25T09:35:16.531Z,82.16
2022-10-25T09:37:48.901Z,80.33
2022-10-25T09:40:20.273Z,79.79
2022-10-25T09:42:53.774Z,79.78
2022-10-25T09:45:29.176Z,80.34
2022-10-25T09:48:10.922Z,80.16
2022-10-25T09:50:44.110Z,78.32
2022-10-25T09:53:13.194Z,76.26
2022-10-25T09:55:56.112Z,76.31
2022-10-25T09:58:29.310Z,74.68
2022-10-25T10:01:03.880Z,71.97
2022-10-25T10:03:35.355Z,70.59
2022-10-25T10:06:08.395Z,70.79
2022-10-25T10:08:37.539Z,70.71
2022-10-25T10:11:05.675Z,68.85
2022-10-25T10:13:46.481Z,68.83
2022-10-25T10:16:22.838Z,68.91
2022-10-25T10:18:50.664Z,70.51
2022-10-25T10:21:21.478Z,70.91
2022-10-25T10:24:06.248Z,70.13
2022-10-25T10:26:37.189Z,69.77
2022-10-25T10:29:27.357Z,69.26
2022-10-25T10:31:56.461Z,68.73
2022-10-25T10:34:44.783Z,67.30
2022-10-25T10:37:26.022Z,66.68
2022-10-25T10:39:56.423Z,66.93
2022-10-25T10:42:42.899Z,68.69
2022-10-25T10:45:18.597Z,66.64
2022-10-25T10:47:51.765Z,66.87
2022-10-25T10:50:29.447Z,67.14
2022-10-25T10:53:06.556Z,68.27
2022-10-25T10:55:50.029Z,68.34
2022-10-25T10:58:23.785Z,67.59
2022-10-25T11:00:56.084Z,68.28
2022-10-25T11:03:48.913Z,68.29
2022-10-25T11:06:35.168Z,69.18
2022-10-25T11:09:18.095Z,69.29
2022-10-25T11:12:07.825Z,68.90
2022-10-25T11:14:34.558Z,68.49
2022-10-25T11:17:19.231Z,69.58
2022-10-25T11:20:00.056Z,70.41
2022-10-25T11:22:53.599Z,67.61
2022-10-25T11:25:46.581Z,68.57
2022-10-25T11:28:19.092Z,67.58
2022-10-25T11:30:52.607Z,67.14
2022-10-25T11:33:52.934Z,67.42
2022-10-25T11:36:56.439Z,67.03
2022-10-25T11:39:33.807Z,67.88
2022-10-25T11:45:21.129Z,67.44
2022-10-25T11:47:57.030Z,66.58
2022-10-25T11:50:32.689Z,67.19
2022-10-25T11:53:25.563Z,67.95
2022-10-25T11:56:34.618Z,67.79
2022-10-25T11:59:20.973Z,68.04
2022-10-25T12:02:32.753Z,67.56
2022-10-25T12:05:28.541Z,66.83
2022-10-25T12:08:08.052Z,67.78
2022-10-25T12:10:44.182Z,67.31
2022-10-25T12:13:24.820Z,67.36
2022-10-25T12:15:55.212Z,66.91
2022-10-25T12:18:36.464Z,67.57
2022-10-25T12:21:04.376Z,68.74
2022-10-25T12:23:41.245Z,68.51
2022-10-25T12:26:19.953Z,69.04
2022-10-25T12:28:49.090Z,69.02
2022-10-25T12:31:26.267Z,68.22
2022-10-25T12:34:01.649Z,68.67
2022-10-25T12:36:36.038Z,68.23
2022-10-25T12:39:11.156Z,68.48
2022-10-25T12:41:40.473Z,68.92
2022-10-25T12:44:28.623Z,68.63
2022-10-25T12:47:11.897Z,68.39
2022-10-25T12:50:01.195Z,67.61
2022-10-25T12:52:33.681Z,68.57
2022-10-25T12:55:33.223Z,69.28
2022-10-25T12:58:33.049Z,67.08
2022-10-25T13:01:38.386Z,67.87
2022-10-25T13:04:39.644Z,67.09
2022-10-25T13:07:08.889Z,67.09
2022-10-25T13:09:39.990Z,67.47
2022-10-25T13:12:16.209Z,66.86
2022-10-25T13:14:56.114Z,66.25
2022-10-25T13:17:23.923Z,65.71
2022-10-25T13:20:14.669Z,65.84
2022-10-25T13:22:42.795Z,66.89
2022-10-25T13:25:12.398Z,65.64
2022-10-25T13:28:00.153Z,65.27
2022-10-25T13:30:32.081Z,65.02
2022-10-25T13:33:18.802Z,64.29
2022-10-25T13:35:48.373Z,64.68
2022-10-25T13:38:39.370Z,63.94
2022-10-25T13:41:18.647Z,64.25
2022-10-25T13:44:03.663Z,64.77
2022-10-25T13:46:41.460Z,62.82
2022-10-25T13:49:38.235Z,63.40
2022-10-25T13:52:23.575Z,63.27
2022-10-25T13:54:54.456Z,62.68
2022-10-25T13:57:49.798Z,61.96
2022-10-25T14:00:47.841Z,62.46
2022-10-25T14:03:28.181Z,63.55
2022-10-25T14:06:00.772Z,61.43
2022-10-25T14:08:31.887Z,61.08
2022-10-25T14:11:11.020Z,62.17
2022-10-25T14:14:16.379Z,62.86
2022-10-25T14:17:03.573Z,62.92
2022-10-25T14:19:37.835Z,62.93
2022-10-25T14:22:15.465Z,63.49
2022-10-25T14:24:44.744Z,62.73
2022-10-25T14:27:35.424Z,62.55
2022-10-25T14:30:23.615Z,62.13
2022-10-25T14:32:51.942Z,60.39
2022-10-25T14:35:19.055Z,60.97
2022-10-25T14:37:45.947Z,60.07
2022-10-25T14:40:21.751Z,60.56
2022-10-25T14:42:49.240Z,59.71
2022-10-25T14:45:23.142Z,59.14
2022-10-25T14:47:50.819Z,60.20
2022-10-25T14:50:23.843Z,58.01
2022-10-25T14:52:52.071Z,58.55
2022-10-25T14:55:27.515Z,58.66
2022-10-25T14:57:54.818Z,58.89
2022-10-25T15:00:26.773Z,58.39
2022-10-25T15:03:01.781Z,58.76
2022-10-25T15:05:30.132Z,60.42
2022-10-25T15:08:00.791Z,61.36
2022-10-25T15:10:43.119Z,61.09
2022-10-25T15:13:33.032Z,61.06
2022-10-25T15:16:03.656Z,62.36
2022-10-25T15:18:37.290Z,62.44
2022-10-25T15:21:11.384Z,63.15
2022-10-25T15:23:40.241Z,63.37
2022-10-25T15:26:21.610Z,63.75
2022-10-25T15:28:55.102Z,64.51
2022-10-25T15:31:25.150Z,63.99
2022-10-25T15:33:56.960Z,63.65
2022-10-25T15:36:26.384Z,63.95
2022-10-25T15:39:08.928Z,64.50
2022-10-25T15:41:37.052Z,65.03
2022-10-25T15:44:03.794Z,65.48
2022-10-25T15:46:38.053Z,65.61
2022-10-25T15:49:09.783Z,66.46
2022-10-25T15:51:39.928Z,66.65
2022-10-25T15:54:15.545Z,66.69
2022-10-25T15:56:42.774Z,65.90
2022-10-25T15:59:10.155Z,66.23
2022-10-25T16:01:41.018Z,66.48
2022-10-25T16:04:14.530Z,67.23
2022-10-25T16:06:41.838Z,68.08
2022-10-25T16:09:08.982Z,68.48
2022-10-25T16:11:43.740Z,69.20
2022-10-25T16:14:23.010Z,69.76
2022-10-25T16:16:51.677Z,69.83
2022-10-25T16:19:23.012Z,70.23
2022-10-25T16:21:49.842Z,70.69
2022-10-25T16:24:17.396Z,70.88
2022-10-25T16:26:47.665Z,71.28
2022-10-25T16:29:24.846Z,71.82
2022-10-25T16:31:54.038Z,71.99
2022-10-25T16:34:21.678Z,72.19
2022-10-25T16:36:50.346Z,72.42
2022-10-25T16:39:17.391Z,72.68
2022-10-25T16:41:48.284Z,72.92
2022-10-25T16:44:19.692Z,73.11
2022-10-25T16:46:46.738Z,73.39
2022-10-25T16:49:15.131Z,73.69
2022-10-25T16:51:44.366Z,73.94
2022-10-25T16:54:12.683Z,73.83
2022-10-25T16:56:41.379Z,73.94
2022-10-25T16:59:09.368Z,74.02
2022-10-25T17:01:41.273Z,73.96
2022-10-25T17:04:12.109Z,73.46
2022-10-25T17:06:49.268Z,73.67
2022-10-25T17:09:17.948Z,73.58
2022-10-25T17:11:45.854Z,73.85
2022-10-25T17:14:13.706Z,73.67
2022-10-25T17:16:43.343Z,73.46
2022-10-25T17:19:10.567Z,73.66
2022-10-25T17:21:37.509Z,74.07
2022-10-25T17:24:04.917Z,74.13
2022-10-25T17:26:31.505Z,74.09
2022-10-25T17:29:00.757Z,73.91
2022-10-25T17:31:28.262Z,73.85
2022-10-25T17:33:56.692Z,73.94
2022-10-25T17:36:23.259Z,74.34
2022-10-25T17:38:50.668Z,74.88
2022-10-25T17:41:17.984Z,74.99
2022-10-25T17:43:44.779Z,75.23
2022-10-25T17:46:23.729Z,75.50
2022-10-25T17:48:55.321Z,75.71
2022-10-25T17:51:23.216Z,76.08
2022-10-25T17:53:54.493Z,76.48
2022-10-25T17:56:23.288Z,76.83
2022-10-25T17:58:51.049Z,77.46
2022-10-25T18:01:22.318Z,77.89
2022-10-25T18:03:50.309Z,76.99
2022-10-25T18:06:20.261Z,76.75
2022-10-25T18:08:58.533Z,76.25
2022-10-25T18:11:30.023Z,76.55
2022-10-25T18:14:00.167Z,77.17
2022-10-25T18:16:31.196Z,78.80
2022-10-25T18:19:01.932Z,80.01
2022-10-25T18:21:34.418Z,80.46
2022-10-25T18:24:04.799Z,80.98
2022-10-25T18:26:35.100Z,80.60
2022-10-25T18:29:05.051Z,80.89
2022-10-25T18:31:31.787Z,80.80
2022-10-25T18:34:03.209Z,78.51
2022-10-25T18:36:30.802Z,78.77
2022-10-25T18:38:57.629Z,79.48
2022-10-25T18:41:27.969Z,78.61
2022-10-25T18:43:56.338Z,79.05
2022-10-25T18:46:24.605Z,79.51
2022-10-25T18:48:52.909Z,80.78
2022-10-25T18:51:21.859Z,81.24
2022-10-25T18:53:52.932Z,81.19
2022-10-25T18:56:22.040Z,81.59
2022-10-25T18:58:51.007Z,81.73
2022-10-25T19:01:20.945Z,81.42
2022-10-25T19:03:47.954Z,81.82
2022-10-25T19:06:16.586Z,81.80
2022-10-25T19:08:43.271Z,81.49
2022-10-25T19:11:12.585Z,81.27
2022-10-25T19:13:40.869Z,80.82
2022-10-25T19:16:09.343Z,79.91
2022-10-25T19:18:37.468Z,80.46
2022-10-25T19:21:07.652Z,80.61
2022-10-25T19:23:41.414Z,81.30
2022-10-25T19:26:12.375Z,80.47
2022-10-25T19:28:40.480Z,80.20
2022-10-25T19:31:12.623Z,80.35
2022-10-25T19:33:40.309Z,81.01
2022-10-25T19:36:10.673Z,81.46
2022-10-25T19:38:38.478Z,81.91
2022-10-25T19:41:08.389Z,81.75
2022-10-25T19:43:36.374Z,82.09
2022-10-25T19:46:06.190Z,82.57
2022-10-25T19:48:34.343Z,82.40
2022-10-25T19:51:06.207Z,82.06
2022-10-25T19:53:33.164Z,82.18
2022-10-25T19:56:15.223Z,82.17
2022-10-25T19:58:42.460Z,81.85
2022-10-25T20:01:21.211Z,81.53
2022-10-25T20:03:50.643Z,80.51
2022-10-25T20:06:24.650Z,81.86
2022-10-25T20:08:52.466Z,80.79
2022-10-25T20:11:19.819Z,81.04
2022-10-25T20:13:46.739Z,80.40
2022-10-25T20:16:14.527Z,79.76
2022-10-25T20:18:42.516Z,81.75
2022-10-25T20:21:12.271Z,81.67
2022-10-25T20:23:40.431Z,82.18
2022-10-25T20:26:19.629Z,81.50
2022-10-25T20:28:47.143Z,82.67
2022-10-25T20:31:15.074Z,83.98
2022-10-25T20:33:41.969Z,84.52
2022-10-25T20:36:11.027Z,84.22
2022-10-25T20:38:38.295Z,83.86
2022-10-25T20:41:13.155Z,83.85
2022-10-25T20:43:40.794Z,83.00
2022-10-25T20:46:08.223Z,83.16
2022-10-25T20:48:35.405Z,83.44
2022-10-25T20:51:05.353Z,83.04
2022-10-25T20:53:34.935Z,82.97
2022-10-25T20:56:01.799Z,83.20
2022-10-25T20:58:28.589Z,83.52
2022-10-25T21:00:57.510Z,83.48
2022-10-25T21:03:26.212Z,83.91
2022-10-25T21:05:54.286Z,83.67
2022-10-25T21:08:23.927Z,83.59
2022-10-25T21:11:01.916Z,83.12
2022-10-25T21:13:31.607Z,83.07
2022-10-25T21:15:58.486Z,83.74
2022-10-25T21:18:30.164Z,83.99
2022-10-25T21:21:01.335Z,84.15
2022-10-25T21:23:28.226Z,83.90
2022-10-25T21:26:11.219Z,84.22
2022-10-25T21:28:39.605Z,84.18
2022-10-25T21:31:09.509Z,84.28
2022-10-25T21:33:36.347Z,84.46
2022-10-25T21:36:04.150Z,84.22
2022-10-25T21:38:30.825Z,84.41
2022-10-25T21:41:12.131Z,84.32
2022-10-25T21:43:46.252Z,84.01
2022-10-25T21:46:14.149Z,84.13
2022-10-25T21:48:41.971Z,84.05
2022-10-25T21:51:08.662Z,83.98
2022-10-25T21:53:35.468Z,83.84
2022-10-25T21:56:23.205Z,84.80
2022-10-25T21:58:50.841Z,84.29
2022-10-25T22:01:22.878Z,83.61
2022-10-25T22:03:51.250Z,83.71
2022-10-25T22:06:21.402Z,84.14
2022-10-25T22:08:50.180Z,85.20
2022-10-25T22:11:23.089Z,84.72
2022-10-25T22:14:03.778Z,84.63
2022-10-25T22:16:32.177Z,85.17
2022-10-25T22:19:02.873Z,85.09
2022-10-25T22:21:32.594Z,84.74
2022-10-25T22:23:59.355Z,84.15
2022-10-25T22:26:26.311Z,83.89
2022-10-25T22:28:54.928Z,84.59
2022-10-25T22:31:22.304Z,85.28
2022-10-25T22:33:56.471Z,85.43
2022-10-25T22:36:25.965Z,85.71
2022-10-25T22:38:52.640Z,85.81
2022-10-25T22:41:22.227Z,86.05
2022-10-25T22:43:49.505Z,86.09
2022-10-25T22:46:24.063Z,85.80
2022-10-25T22:48:52.945Z,85.97
2022-10-25T22:51:20.336Z,85.68
2022-10-25T22:53:46.965Z,85.88
2022-10-25T22:56:14.770Z,86.96
2022-10-25T22:58:43.211Z,87.33
2022-10-25T23:01:19.162Z,87.21
2022-10-25T23:03:52.000Z,87.23
2022-10-25T23:06:26.884Z,87.28
2022-10-25T23:08:54.713Z,87.75
2022-10-25T23:11:24.027Z,87.50
2022-10-25T23:13:50.652Z,86.75
2022-10-25T23:16:17.799Z,87.98
2022-10-25T23:18:45.067Z,88.61
2022-10-25T23:21:23.268Z,88.84
2022-10-25T23:23:51.536Z,89.05
2022-10-25T23:26:29.581Z,89.04
2022-10-25T23:28:56.708Z,88.98
2022-10-25T23:31:24.353Z,88.40
2022-10-25T23:33:53.165Z,86.80
2022-10-25T23:36:21.502Z,87.72
2022-10-25T23:38:49.687Z,88.00
2022-10-25T23:41:21.115Z,88.75
2022-10-25T23:43:48.584Z,89.38
2022-10-25T23:46:16.741Z,87.98
2022-10-25T23:48:43.874Z,87.20
2022-10-25T23:51:13.277Z,87.33
2022-10-25T23:53:40.273Z,88.11
2022-10-25T23:56:09.521Z,89.11
2022-10-25T23:58:36.195Z,89.37
